Ovid, New York
Current Conditions -  °F | °C
As of 11:53 AM on Friday 19 Dec 2014 (Local Time) from KPEO Reporting Station
Overcast Overcast  
Wind Chill: 19°   Ceiling: 1100
Heat Index: 26°   Visibility: 10mi
Dew Point: 21°   Wind: 6mph
Humidity: 81%   Direction: 280°W
Pressure: 30.12"   Gusts: NA
Location:  42.68°N, 76.82°W
Report Text: KPEO 191653Z AUTO 28005KT 10SM OVC011 M03/M06 A3012 RMK AO2 SLP213 T10331061
Loading
Personal Weather Stations






























Interactive Weather Map New forecast layout! Learn more

10-Day Weather Forecast

Advertisements
Track Severe Weather on mobile